XNA weather

Northwest Arkansas Regional Airport
Fayetteville/Springdale/Rogers, Arkansas, United States

Public forecast

Using degrees Fahrenheit for public forecast. Weather courtesy of forecast.io.

Current aviation weather report (METAR) for Northwest Arkansas Regional Airport

Retrieved 2020/05/31 15:53 UTC (47 minutes ago):

KXNA 311553Z 12004KT 10SM CLR 24/13 A3026 RMK AO2 SLP237 T02390133

Aviation forecast (TAF) for Northwest Arkansas Regional Airport

Retrieved 2020/05/31 12:22 UTC (4 hours ago):

TAF KXNA 311120Z 3112/0112 09004KT P6SM FEW150 FM311400 14007KT P6SM SCT120